Terminal Aerodrome Forecast
Issued by NWS

Home | Current Version | Previous Version | Text Only | Print | Product List | Glossary Off
Versions: 1 2 3 4 5 6 7 8 9 10 11 12 13

000
FTUS45 KGGW 131100
TAFSDY
TAF
KSDY 131126Z 1312/1412 VRB05KT P6SM SCT150
     FM131400 29011KT P6SM SCT100
     FM131700 32013KT P6SM BKN030
     FM140100 VRB06KT P6SM SCT060
      AMD LTD TO CLD VIS AND WIND=

USA.gov is the U.S. government's official web portal to all federal, state and local government web resources and services.